sensor_id;sensor_type;location;lat;lon;timestamp;P1;durP1;ratioP1;P2;durP2;ratioP2
50379;SDS011;37474;59.468;18.040;2023-04-24T00:01:52;2.67;;;1.85;;
50379;SDS011;37474;59.468;18.040;2023-04-24T00:04:21;2.10;;;1.53;;
50379;SDS011;37474;59.468;18.040;2023-04-24T00:06:52;2.00;;;1.77;;
50379;SDS011;37474;59.468;18.040;2023-04-24T00:09:23;1.93;;;1.60;;
50379;SDS011;37474;59.468;18.040;2023-04-24T00:11:51;1.77;;;1.60;;
50379;SDS011;37474;59.468;18.040;2023-04-24T00:14:20;1.37;;;1.27;;
50379;SDS011;37474;59.468;18.040;2023-04-24T00:16:49;2.43;;;1.40;;
50379;SDS011;37474;59.468;18.040;2023-04-24T00:19:18;2.67;;;1.50;;
50379;SDS011;37474;59.468;18.040;2023-04-24T00:21:47;2.95;;;1.20;;
50379;SDS011;37474;59.468;18.040;2023-04-24T00:24:17;2.43;;;1.20;;
50379;SDS011;37474;59.468;18.040;2023-04-24T00:26:45;2.77;;;1.23;;
50379;SDS011;37474;59.468;18.040;2023-04-24T00:29:13;3.10;;;1.30;;
50379;SDS011;37474;59.468;18.040;2023-04-24T00:31:41;1.80;;;1.20;;
50379;SDS011;37474;59.468;18.040;2023-04-24T00:34:11;2.67;;;1.10;;
50379;SDS011;37474;59.468;18.040;2023-04-24T00:36:39;3.97;;;1.57;;
50379;SDS011;37474;59.468;18.040;2023-04-24T00:39:07;5.07;;;1.40;;
50379;SDS011;37474;59.468;18.040;2023-04-24T00:41:36;4.47;;;1.47;;
50379;SDS011;37474;59.468;18.040;2023-04-24T00:44:04;3.67;;;1.20;;
50379;SDS011;37474;59.468;18.040;2023-04-24T00:46:32;1.93;;;1.23;;
50379;SDS011;37474;59.468;18.040;2023-04-24T00:49:00;2.97;;;1.50;;
50379;SDS011;37474;59.468;18.040;2023-04-24T00:51:30;4.13;;;1.70;;
50379;SDS011;37474;59.468;18.040;2023-04-24T00:53:59;3.42;;;1.40;;
50379;SDS011;37474;59.468;18.040;2023-04-24T00:56:27;3.50;;;1.60;;
50379;SDS011;37474;59.468;18.040;2023-04-24T00:58:56;5.37;;;1.43;;
50379;SDS011;37474;59.468;18.040;2023-04-24T01:01:25;5.17;;;1.50;;
50379;SDS011;37474;59.468;18.040;2023-04-24T01:03:53;5.63;;;1.50;;
50379;SDS011;37474;59.468;18.040;2023-04-24T01:06:23;4.40;;;1.50;;
50379;SDS011;37474;59.468;18.040;2023-04-24T01:08:56;5.23;;;1.67;;
50379;SDS011;37474;59.468;18.040;2023-04-24T01:11:26;3.30;;;1.20;;
50379;SDS011;37474;59.468;18.040;2023-04-24T01:13:56;2.53;;;1.50;;
50379;SDS011;37474;59.468;18.040;2023-04-24T01:16:25;4.13;;;1.90;;
50379;SDS011;37474;59.468;18.040;2023-04-24T01:18:53;7.37;;;2.27;;
50379;SDS011;37474;59.468;18.040;2023-04-24T01:21:21;5.37;;;1.77;;
50379;SDS011;37474;59.468;18.040;2023-04-24T01:23:52;4.20;;;1.92;;
50379;SDS011;37474;59.468;18.040;2023-04-24T01:26:22;4.75;;;2.05;;
50379;SDS011;37474;59.468;18.040;2023-04-24T01:28:51;4.10;;;1.80;;
50379;SDS011;37474;59.468;18.040;2023-04-24T01:31:20;6.23;;;2.00;;
50379;SDS011;37474;59.468;18.040;2023-04-24T01:33:49;5.50;;;2.00;;
50379;SDS011;37474;59.468;18.040;2023-04-24T01:36:20;10.23;;;2.30;;
50379;SDS011;37474;59.468;18.040;2023-04-24T01:38:53;5.93;;;2.07;;
50379;SDS011;37474;59.468;18.040;2023-04-24T01:41:21;5.43;;;2.10;;
50379;SDS011;37474;59.468;18.040;2023-04-24T01:43:53;7.43;;;2.20;;
50379;SDS011;37474;59.468;18.040;2023-04-24T01:46:21;7.17;;;2.17;;
50379;SDS011;37474;59.468;18.040;2023-04-24T01:48:50;6.83;;;2.03;;
50379;SDS011;37474;59.468;18.040;2023-04-24T01:51:19;5.03;;;2.17;;
50379;SDS011;37474;59.468;18.040;2023-04-24T01:53:50;6.00;;;2.50;;
50379;SDS011;37474;59.468;18.040;2023-04-24T01:56:19;6.27;;;2.87;;
50379;SDS011;37474;59.468;18.040;2023-04-24T01:58:49;7.77;;;3.07;;
50379;SDS011;37474;59.468;18.040;2023-04-24T02:01:21;9.20;;;3.33;;
50379;SDS011;37474;59.468;18.040;2023-04-24T02:03:51;6.38;;;2.72;;
50379;SDS011;37474;59.468;18.040;2023-04-24T02:06:19;4.27;;;2.50;;
50379;SDS011;37474;59.468;18.040;2023-04-24T02:08:47;5.70;;;2.77;;
50379;SDS011;37474;59.468;18.040;2023-04-24T02:11:15;7.23;;;2.97;;
50379;SDS011;37474;59.468;18.040;2023-04-24T02:13:47;7.72;;;2.85;;
50379;SDS011;37474;59.468;18.040;2023-04-24T02:16:15;6.72;;;3.08;;
50379;SDS011;37474;59.468;18.040;2023-04-24T02:18:43;7.00;;;3.17;;
50379;SDS011;37474;59.468;18.040;2023-04-24T02:21:11;5.80;;;3.03;;
50379;SDS011;37474;59.468;18.040;2023-04-24T02:23:39;6.53;;;2.57;;
50379;SDS011;37474;59.468;18.040;2023-04-24T02:26:07;6.00;;;2.73;;
50379;SDS011;37474;59.468;18.040;2023-04-24T02:28:36;6.93;;;3.07;;
50379;SDS011;37474;59.468;18.040;2023-04-24T02:31:05;5.20;;;2.60;;
50379;SDS011;37474;59.468;18.040;2023-04-24T02:33:33;6.70;;;2.70;;
50379;SDS011;37474;59.468;18.040;2023-04-24T02:36:01;6.97;;;2.73;;
50379;SDS011;37474;59.468;18.040;2023-04-24T02:38:30;6.27;;;3.10;;
50379;SDS011;37474;59.468;18.040;2023-04-24T02:40:58;7.03;;;3.03;;
50379;SDS011;37474;59.468;18.040;2023-04-24T02:43:27;7.60;;;2.70;;
50379;SDS011;37474;59.468;18.040;2023-04-24T02:45:55;5.77;;;2.70;;
50379;SDS011;37474;59.468;18.040;2023-04-24T02:48:24;6.20;;;2.90;;
50379;SDS011;37474;59.468;18.040;2023-04-24T02:50:54;7.10;;;2.63;;
50379;SDS011;37474;59.468;18.040;2023-04-24T02:53:23;6.57;;;2.27;;
50379;SDS011;37474;59.468;18.040;2023-04-24T02:55:51;6.13;;;2.53;;
50379;SDS011;37474;59.468;18.040;2023-04-24T02:58:19;6.97;;;2.37;;
50379;SDS011;37474;59.468;18.040;2023-04-24T03:00:47;6.70;;;2.60;;
50379;SDS011;37474;59.468;18.040;2023-04-24T03:03:15;5.87;;;2.10;;
50379;SDS011;37474;59.468;18.040;2023-04-24T03:05:45;5.13;;;2.10;;
50379;SDS011;37474;59.468;18.040;2023-04-24T03:08:16;5.63;;;2.23;;
50379;SDS011;37474;59.468;18.040;2023-04-24T03:10:44;7.40;;;2.50;;
50379;SDS011;37474;59.468;18.040;2023-04-24T03:13:13;5.70;;;2.20;;
50379;SDS011;37474;59.468;18.040;2023-04-24T03:15:42;5.53;;;2.23;;
50379;SDS011;37474;59.468;18.040;2023-04-24T03:18:11;6.60;;;2.13;;
50379;SDS011;37474;59.468;18.040;2023-04-24T03:20:39;6.10;;;2.47;;
50379;SDS011;37474;59.468;18.040;2023-04-24T03:23:09;7.60;;;3.03;;
50379;SDS011;37474;59.468;18.040;2023-04-24T03:25:37;6.63;;;3.37;;
50379;SDS011;37474;59.468;18.040;2023-04-24T03:28:05;5.93;;;3.07;;
50379;SDS011;37474;59.468;18.040;2023-04-24T03:30:33;8.07;;;2.80;;
50379;SDS011;37474;59.468;18.040;2023-04-24T03:33:01;7.27;;;2.73;;
50379;SDS011;37474;59.468;18.040;2023-04-24T03:35:29;5.73;;;2.40;;
50379;SDS011;37474;59.468;18.040;2023-04-24T03:37:57;6.30;;;2.23;;
50379;SDS011;37474;59.468;18.040;2023-04-24T03:40:27;5.97;;;2.13;;
50379;SDS011;37474;59.468;18.040;2023-04-24T03:42:56;6.50;;;2.45;;
50379;SDS011;37474;59.468;18.040;2023-04-24T03:45:23;6.37;;;2.40;;
50379;SDS011;37474;59.468;18.040;2023-04-24T03:47:52;5.17;;;1.97;;
50379;SDS011;37474;59.468;18.040;2023-04-24T03:50:20;6.53;;;2.07;;
50379;SDS011;37474;59.468;18.040;2023-04-24T03:52:48;5.27;;;1.80;;
50379;SDS011;37474;59.468;18.040;2023-04-24T03:55:16;5.07;;;1.73;;
50379;SDS011;37474;59.468;18.040;2023-04-24T03:57:45;5.03;;;2.00;;
50379;SDS011;37474;59.468;18.040;2023-04-24T04:00:14;10.00;;;2.25;;
50379;SDS011;37474;59.468;18.040;2023-04-24T04:02:42;5.33;;;1.80;;
50379;SDS011;37474;59.468;18.040;2023-04-24T04:05:10;4.43;;;1.57;;
50379;SDS011;37474;59.468;18.040;2023-04-24T04:07:38;7.23;;;2.37;;
50379;SDS011;37474;59.468;18.040;2023-04-24T04:10:07;5.33;;;2.10;;
50379;SDS011;37474;59.468;18.040;2023-04-24T04:12:35;6.03;;;2.10;;
50379;SDS011;37474;59.468;18.040;2023-04-24T04:15:05;6.03;;;2.20;;
50379;SDS011;37474;59.468;18.040;2023-04-24T04:20:02;7.57;;;2.70;;
50379;SDS011;37474;59.468;18.040;2023-04-24T04:22:33;6.23;;;2.30;;
50379;SDS011;37474;59.468;18.040;2023-04-24T04:25:02;6.87;;;2.73;;
50379;SDS011;37474;59.468;18.040;2023-04-24T04:27:30;5.03;;;2.00;;
50379;SDS011;37474;59.468;18.040;2023-04-24T04:30:00;5.50;;;2.27;;
50379;SDS011;37474;59.468;18.040;2023-04-24T04:32:32;6.43;;;2.57;;
50379;SDS011;37474;59.468;18.040;2023-04-24T04:35:01;6.28;;;3.03;;
50379;SDS011;37474;59.468;18.040;2023-04-24T04:37:29;5.77;;;2.87;;
50379;SDS011;37474;59.468;18.040;2023-04-24T04:39:58;5.00;;;2.20;;
50379;SDS011;37474;59.468;18.040;2023-04-24T04:42:26;5.27;;;2.00;;
50379;SDS011;37474;59.468;18.040;2023-04-24T04:44:55;5.50;;;2.57;;
50379;SDS011;37474;59.468;18.040;2023-04-24T04:47:23;5.53;;;2.63;;
50379;SDS011;37474;59.468;18.040;2023-04-24T04:49:54;4.70;;;2.13;;
50379;SDS011;37474;59.468;18.040;2023-04-24T04:52:22;3.97;;;2.10;;
50379;SDS011;37474;59.468;18.040;2023-04-24T04:54:53;6.87;;;2.60;;
50379;SDS011;37474;59.468;18.040;2023-04-24T04:57:21;6.60;;;2.50;;
50379;SDS011;37474;59.468;18.040;2023-04-24T04:59:49;6.67;;;2.33;;
50379;SDS011;37474;59.468;18.040;2023-04-24T05:02:17;5.80;;;2.50;;
50379;SDS011;37474;59.468;18.040;2023-04-24T05:04:45;7.17;;;2.73;;
50379;SDS011;37474;59.468;18.040;2023-04-24T05:07:18;6.27;;;2.50;;
50379;SDS011;37474;59.468;18.040;2023-04-24T05:09:46;7.10;;;2.63;;
50379;SDS011;37474;59.468;18.040;2023-04-24T05:12:14;8.00;;;2.73;;
50379;SDS011;37474;59.468;18.040;2023-04-24T05:14:42;8.23;;;2.73;;
50379;SDS011;37474;59.468;18.040;2023-04-24T05:17:10;6.67;;;2.50;;
50379;SDS011;37474;59.468;18.040;2023-04-24T05:19:38;6.13;;;2.77;;
50379;SDS011;37474;59.468;18.040;2023-04-24T05:22:06;6.33;;;2.30;;
50379;SDS011;37474;59.468;18.040;2023-04-24T05:24:37;4.73;;;2.20;;
50379;SDS011;37474;59.468;18.040;2023-04-24T05:27:05;6.93;;;2.70;;
50379;SDS011;37474;59.468;18.040;2023-04-24T05:29:33;6.40;;;2.57;;
50379;SDS011;37474;59.468;18.040;2023-04-24T05:32:01;5.00;;;2.30;;
50379;SDS011;37474;59.468;18.040;2023-04-24T05:34:29;4.80;;;2.10;;
50379;SDS011;37474;59.468;18.040;2023-04-24T05:36:58;5.47;;;2.30;;
50379;SDS011;37474;59.468;18.040;2023-04-24T05:39:26;7.20;;;2.43;;
50379;SDS011;37474;59.468;18.040;2023-04-24T05:41:55;5.90;;;2.30;;
50379;SDS011;37474;59.468;18.040;2023-04-24T05:44:25;6.50;;;2.67;;
50379;SDS011;37474;59.468;18.040;2023-04-24T05:46:53;6.23;;;2.40;;
50379;SDS011;37474;59.468;18.040;2023-04-24T05:49:21;5.80;;;2.47;;
50379;SDS011;37474;59.468;18.040;2023-04-24T05:51:50;6.07;;;2.53;;
50379;SDS011;37474;59.468;18.040;2023-04-24T05:54:18;5.67;;;2.67;;
50379;SDS011;37474;59.468;18.040;2023-04-24T05:56:46;8.37;;;2.83;;
50379;SDS011;37474;59.468;18.040;2023-04-24T05:59:15;5.27;;;3.00;;
50379;SDS011;37474;59.468;18.040;2023-04-24T06:01:43;9.27;;;3.00;;
50379;SDS011;37474;59.468;18.040;2023-04-24T06:04:11;5.90;;;3.00;;
50379;SDS011;37474;59.468;18.040;2023-04-24T06:06:41;7.05;;;3.33;;
50379;SDS011;37474;59.468;18.040;2023-04-24T06:09:09;6.73;;;3.57;;
50379;SDS011;37474;59.468;18.040;2023-04-24T06:11:38;8.50;;;3.20;;
50379;SDS011;37474;59.468;18.040;2023-04-24T06:14:06;6.97;;;2.73;;
50379;SDS011;37474;59.468;18.040;2023-04-24T06:16:35;6.43;;;2.90;;
50379;SDS011;37474;59.468;18.040;2023-04-24T06:19:05;4.83;;;2.50;;
50379;SDS011;37474;59.468;18.040;2023-04-24T06:21:33;8.07;;;2.90;;
50379;SDS011;37474;59.468;18.040;2023-04-24T06:24:01;5.93;;;2.77;;
50379;SDS011;37474;59.468;18.040;2023-04-24T06:26:30;6.37;;;3.23;;
50379;SDS011;37474;59.468;18.040;2023-04-24T06:28:58;5.63;;;2.60;;
50379;SDS011;37474;59.468;18.040;2023-04-24T06:31:26;5.57;;;3.03;;
50379;SDS011;37474;59.468;18.040;2023-04-24T06:33:56;4.93;;;2.80;;
50379;SDS011;37474;59.468;18.040;2023-04-24T06:36:24;5.73;;;2.53;;
50379;SDS011;37474;59.468;18.040;2023-04-24T06:38:52;6.17;;;3.30;;
50379;SDS011;37474;59.468;18.040;2023-04-24T06:41:21;5.67;;;3.00;;
50379;SDS011;37474;59.468;18.040;2023-04-24T06:43:49;6.50;;;2.70;;
50379;SDS011;37474;59.468;18.040;2023-04-24T06:46:17;6.07;;;2.60;;
50379;SDS011;37474;59.468;18.040;2023-04-24T06:48:45;5.77;;;2.53;;
50379;SDS011;37474;59.468;18.040;2023-04-24T06:51:14;4.90;;;1.90;;
50379;SDS011;37474;59.468;18.040;2023-04-24T06:53:43;3.67;;;1.97;;
50379;SDS011;37474;59.468;18.040;2023-04-24T06:56:14;5.70;;;2.03;;
50379;SDS011;37474;59.468;18.040;2023-04-24T06:58:42;6.07;;;1.80;;
50379;SDS011;37474;59.468;18.040;2023-04-24T07:01:11;4.33;;;2.20;;
50379;SDS011;37474;59.468;18.040;2023-04-24T07:03:39;3.67;;;1.70;;
50379;SDS011;37474;59.468;18.040;2023-04-24T07:06:08;4.83;;;2.17;;
50379;SDS011;37474;59.468;18.040;2023-04-24T07:08:38;4.37;;;2.07;;
50379;SDS011;37474;59.468;18.040;2023-04-24T07:11:08;3.07;;;2.13;;
50379;SDS011;37474;59.468;18.040;2023-04-24T07:13:36;4.03;;;1.90;;
50379;SDS011;37474;59.468;18.040;2023-04-24T07:16:08;3.70;;;2.13;;
50379;SDS011;37474;59.468;18.040;2023-04-24T07:18:37;2.50;;;2.00;;
50379;SDS011;37474;59.468;18.040;2023-04-24T07:21:06;4.27;;;2.17;;
50379;SDS011;37474;59.468;18.040;2023-04-24T07:23:34;2.97;;;1.90;;
50379;SDS011;37474;59.468;18.040;2023-04-24T07:26:04;3.03;;;2.10;;
50379;SDS011;37474;59.468;18.040;2023-04-24T07:28:32;4.15;;;1.98;;
50379;SDS011;37474;59.468;18.040;2023-04-24T07:31:00;3.20;;;2.10;;
50379;SDS011;37474;59.468;18.040;2023-04-24T07:33:28;3.63;;;2.13;;
50379;SDS011;37474;59.468;18.040;2023-04-24T07:35:56;3.33;;;2.00;;
50379;SDS011;37474;59.468;18.040;2023-04-24T07:38:28;3.73;;;2.10;;
50379;SDS011;37474;59.468;18.040;2023-04-24T07:40:57;2.55;;;2.10;;
50379;SDS011;37474;59.468;18.040;2023-04-24T07:43:26;4.53;;;2.60;;
50379;SDS011;37474;59.468;18.040;2023-04-24T07:45:54;3.53;;;2.33;;
50379;SDS011;37474;59.468;18.040;2023-04-24T07:48:22;3.60;;;2.53;;
50379;SDS011;37474;59.468;18.040;2023-04-24T07:50:52;4.90;;;2.63;;
50379;SDS011;37474;59.468;18.040;2023-04-24T07:53:20;3.90;;;2.50;;
50379;SDS011;37474;59.468;18.040;2023-04-24T07:55:48;3.43;;;2.67;;
50379;SDS011;37474;59.468;18.040;2023-04-24T07:58:16;4.80;;;2.80;;
50379;SDS011;37474;59.468;18.040;2023-04-24T08:00:46;6.07;;;2.90;;
50379;SDS011;37474;59.468;18.040;2023-04-24T08:03:14;3.88;;;2.60;;
50379;SDS011;37474;59.468;18.040;2023-04-24T08:05:45;5.67;;;2.47;;
50379;SDS011;37474;59.468;18.040;2023-04-24T08:08:13;3.00;;;2.20;;
50379;SDS011;37474;59.468;18.040;2023-04-24T08:10:42;5.37;;;2.70;;
50379;SDS011;37474;59.468;18.040;2023-04-24T08:13:10;5.97;;;2.73;;
50379;SDS011;37474;59.468;18.040;2023-04-24T08:15:38;4.20;;;3.10;;
50379;SDS011;37474;59.468;18.040;2023-04-24T08:18:11;4.97;;;2.93;;
50379;SDS011;37474;59.468;18.040;2023-04-24T08:20:39;3.17;;;2.70;;
50379;SDS011;37474;59.468;18.040;2023-04-24T08:23:07;4.57;;;2.60;;
50379;SDS011;37474;59.468;18.040;2023-04-24T08:25:36;4.07;;;2.67;;
50379;SDS011;37474;59.468;18.040;2023-04-24T08:28:05;3.90;;;2.57;;
50379;SDS011;37474;59.468;18.040;2023-04-24T08:30:33;4.63;;;2.42;;
50379;SDS011;37474;59.468;18.040;2023-04-24T08:33:02;4.27;;;2.40;;
50379;SDS011;37474;59.468;18.040;2023-04-24T08:35:31;5.03;;;2.63;;
50379;SDS011;37474;59.468;18.040;2023-04-24T08:37:59;3.23;;;2.30;;
50379;SDS011;37474;59.468;18.040;2023-04-24T08:40:28;3.20;;;2.60;;
50379;SDS011;37474;59.468;18.040;2023-04-24T08:42:57;4.53;;;2.33;;
50379;SDS011;37474;59.468;18.040;2023-04-24T08:45:26;2.78;;;2.22;;
50379;SDS011;37474;59.468;18.040;2023-04-24T08:47:55;4.13;;;2.60;;
50379;SDS011;37474;59.468;18.040;2023-04-24T08:50:25;4.65;;;3.08;;
50379;SDS011;37474;59.468;18.040;2023-04-24T08:52:55;3.50;;;2.40;;
50379;SDS011;37474;59.468;18.040;2023-04-24T08:55:24;2.77;;;2.30;;
50379;SDS011;37474;59.468;18.040;2023-04-24T08:57:53;4.03;;;2.53;;
50379;SDS011;37474;59.468;18.040;2023-04-24T09:00:22;3.07;;;2.10;;
50379;SDS011;37474;59.468;18.040;2023-04-24T09:02:51;3.47;;;2.10;;
50379;SDS011;37474;59.468;18.040;2023-04-24T09:05:21;2.70;;;1.80;;
50379;SDS011;37474;59.468;18.040;2023-04-24T09:07:54;3.63;;;2.10;;
50379;SDS011;37474;59.468;18.040;2023-04-24T09:10:24;4.37;;;2.47;;
50379;SDS011;37474;59.468;18.040;2023-04-24T09:12:53;3.65;;;2.35;;
50379;SDS011;37474;59.468;18.040;2023-04-24T09:15:24;3.90;;;1.97;;
50379;SDS011;37474;59.468;18.040;2023-04-24T09:17:53;2.43;;;1.90;;
50379;SDS011;37474;59.468;18.040;2023-04-24T09:20:21;3.67;;;2.17;;
50379;SDS011;37474;59.468;18.040;2023-04-24T09:22:52;3.13;;;1.83;;
50379;SDS011;37474;59.468;18.040;2023-04-24T09:25:23;3.47;;;2.00;;
50379;SDS011;37474;59.468;18.040;2023-04-24T09:28:00;3.77;;;2.23;;
50379;SDS011;37474;59.468;18.040;2023-04-24T09:30:29;3.73;;;1.80;;
50379;SDS011;37474;59.468;18.040;2023-04-24T09:33:10;2.63;;;1.80;;
50379;SDS011;37474;59.468;18.040;2023-04-24T09:35:40;3.23;;;1.80;;
50379;SDS011;37474;59.468;18.040;2023-04-24T09:38:09;3.10;;;1.83;;
50379;SDS011;37474;59.468;18.040;2023-04-24T09:40:39;2.87;;;1.60;;
50379;SDS011;37474;59.468;18.040;2023-04-24T09:43:10;3.90;;;1.80;;
50379;SDS011;37474;59.468;18.040;2023-04-24T09:45:39;2.70;;;1.80;;
50379;SDS011;37474;59.468;18.040;2023-04-24T09:48:08;3.40;;;1.80;;
50379;SDS011;37474;59.468;18.040;2023-04-24T09:50:37;2.83;;;1.67;;
50379;SDS011;37474;59.468;18.040;2023-04-24T09:53:06;2.47;;;2.00;;
50379;SDS011;37474;59.468;18.040;2023-04-24T09:55:42;3.03;;;1.73;;
50379;SDS011;37474;59.468;18.040;2023-04-24T09:58:15;4.13;;;1.90;;
50379;SDS011;37474;59.468;18.040;2023-04-24T10:00:43;3.97;;;1.90;;
50379;SDS011;37474;59.468;18.040;2023-04-24T10:03:13;3.83;;;1.92;;
50379;SDS011;37474;59.468;18.040;2023-04-24T10:08:13;2.87;;;1.87;;
50379;SDS011;37474;59.468;18.040;2023-04-24T10:10:43;4.67;;;1.70;;
50379;SDS011;37474;59.468;18.040;2023-04-24T10:13:12;2.40;;;1.73;;
50379;SDS011;37474;59.468;18.040;2023-04-24T10:15:42;2.75;;;1.70;;
50379;SDS011;37474;59.468;18.040;2023-04-24T10:18:10;3.13;;;1.87;;
50379;SDS011;37474;59.468;18.040;2023-04-24T10:20:39;3.63;;;1.83;;
50379;SDS011;37474;59.468;18.040;2023-04-24T10:23:07;4.17;;;1.67;;
50379;SDS011;37474;59.468;18.040;2023-04-24T10:25:36;2.87;;;1.63;;
50379;SDS011;37474;59.468;18.040;2023-04-24T10:28:06;3.33;;;2.30;;
50379;SDS011;37474;59.468;18.040;2023-04-24T10:30:36;2.30;;;1.53;;
50379;SDS011;37474;59.468;18.040;2023-04-24T10:33:05;3.10;;;2.00;;
50379;SDS011;37474;59.468;18.040;2023-04-24T10:35:36;3.53;;;2.13;;
50379;SDS011;37474;59.468;18.040;2023-04-24T10:38:08;3.73;;;1.93;;
50379;SDS011;37474;59.468;18.040;2023-04-24T10:40:38;2.53;;;2.00;;
50379;SDS011;37474;59.468;18.040;2023-04-24T10:43:08;3.37;;;1.90;;
50379;SDS011;37474;59.468;18.040;2023-04-24T10:45:38;3.70;;;2.37;;
50379;SDS011;37474;59.468;18.040;2023-04-24T10:48:07;4.73;;;2.20;;
50379;SDS011;37474;59.468;18.040;2023-04-24T10:50:44;4.67;;;1.90;;
50379;SDS011;37474;59.468;18.040;2023-04-24T10:53:14;2.40;;;1.73;;
50379;SDS011;37474;59.468;18.040;2023-04-24T10:55:44;3.15;;;1.80;;
50379;SDS011;37474;59.468;18.040;2023-04-24T10:58:15;4.18;;;1.95;;
50379;SDS011;37474;59.468;18.040;2023-04-24T11:03:24;3.33;;;1.90;;
50379;SDS011;37474;59.468;18.040;2023-04-24T11:05:55;4.82;;;1.90;;
50379;SDS011;37474;59.468;18.040;2023-04-24T11:08:27;4.93;;;2.00;;
50379;SDS011;37474;59.468;18.040;2023-04-24T11:11:02;2.43;;;1.57;;
50379;SDS011;37474;59.468;18.040;2023-04-24T11:16:35;4.13;;;1.50;;
50379;SDS011;37474;59.468;18.040;2023-04-24T11:19:06;2.10;;;1.70;;
50379;SDS011;37474;59.468;18.040;2023-04-24T11:21:40;4.60;;;2.23;;
50379;SDS011;37474;59.468;18.040;2023-04-24T11:24:26;3.03;;;1.90;;
50379;SDS011;37474;59.468;18.040;2023-04-24T11:26:59;4.87;;;2.20;;
50379;SDS011;37474;59.468;18.040;2023-04-24T11:29:40;4.47;;;2.77;;
50379;SDS011;37474;59.468;18.040;2023-04-24T11:32:15;3.93;;;2.17;;
50379;SDS011;37474;59.468;18.040;2023-04-24T11:34:46;4.07;;;2.27;;
50379;SDS011;37474;59.468;18.040;2023-04-24T11:37:15;3.30;;;2.10;;
50379;SDS011;37474;59.468;18.040;2023-04-24T11:39:43;5.10;;;2.13;;
50379;SDS011;37474;59.468;18.040;2023-04-24T11:42:13;2.53;;;1.90;;
50379;SDS011;37474;59.468;18.040;2023-04-24T11:47:14;2.33;;;1.97;;
50379;SDS011;37474;59.468;18.040;2023-04-24T11:49:42;3.33;;;2.20;;
50379;SDS011;37474;59.468;18.040;2023-04-24T11:52:10;2.90;;;2.00;;
50379;SDS011;37474;59.468;18.040;2023-04-24T11:54:41;4.57;;;2.80;;
50379;SDS011;37474;59.468;18.040;2023-04-24T11:57:15;3.63;;;2.50;;
50379;SDS011;37474;59.468;18.040;2023-04-24T11:59:46;3.03;;;2.20;;
50379;SDS011;37474;59.468;18.040;2023-04-24T12:02:24;3.92;;;2.40;;
50379;SDS011;37474;59.468;18.040;2023-04-24T12:04:53;4.10;;;2.37;;
50379;SDS011;37474;59.468;18.040;2023-04-24T12:07:23;4.03;;;2.60;;
50379;SDS011;37474;59.468;18.040;2023-04-24T12:09:55;6.73;;;2.60;;
50379;SDS011;37474;59.468;18.040;2023-04-24T12:12:25;2.70;;;2.23;;
50379;SDS011;37474;59.468;18.040;2023-04-24T12:14:57;3.88;;;2.67;;
50379;SDS011;37474;59.468;18.040;2023-04-24T12:17:26;6.23;;;2.73;;
50379;SDS011;37474;59.468;18.040;2023-04-24T12:19:57;4.80;;;2.70;;
50379;SDS011;37474;59.468;18.040;2023-04-24T12:22:27;5.22;;;2.55;;
50379;SDS011;37474;59.468;18.040;2023-04-24T12:24:56;6.23;;;2.70;;
50379;SDS011;37474;59.468;18.040;2023-04-24T12:27:30;5.93;;;2.60;;
50379;SDS011;37474;59.468;18.040;2023-04-24T12:30:01;5.53;;;3.00;;
50379;SDS011;37474;59.468;18.040;2023-04-24T12:32:31;5.97;;;2.70;;
50379;SDS011;37474;59.468;18.040;2023-04-24T12:34:59;7.43;;;2.90;;
50379;SDS011;37474;59.468;18.040;2023-04-24T12:37:33;7.40;;;3.07;;
50379;SDS011;37474;59.468;18.040;2023-04-24T12:42:33;6.57;;;3.05;;
50379;SDS011;37474;59.468;18.040;2023-04-24T12:45:04;6.43;;;2.93;;
50379;SDS011;37474;59.468;18.040;2023-04-24T12:47:34;5.97;;;2.70;;
50379;SDS011;37474;59.468;18.040;2023-04-24T12:50:03;7.60;;;2.77;;
50379;SDS011;37474;59.468;18.040;2023-04-24T12:52:32;7.10;;;3.50;;
50379;SDS011;37474;59.468;18.040;2023-04-24T12:55:00;5.17;;;2.80;;
50379;SDS011;37474;59.468;18.040;2023-04-24T12:57:29;5.97;;;2.87;;
50379;SDS011;37474;59.468;18.040;2023-04-24T12:59:58;4.67;;;2.53;;
50379;SDS011;37474;59.468;18.040;2023-04-24T13:02:28;6.07;;;3.60;;
50379;SDS011;37474;59.468;18.040;2023-04-24T13:04:58;8.13;;;3.03;;
50379;SDS011;37474;59.468;18.040;2023-04-24T13:07:26;4.63;;;3.23;;
50379;SDS011;37474;59.468;18.040;2023-04-24T13:09:55;5.67;;;3.17;;
50379;SDS011;37474;59.468;18.040;2023-04-24T13:12:24;6.10;;;2.97;;
50379;SDS011;37474;59.468;18.040;2023-04-24T13:14:53;5.20;;;2.73;;
50379;SDS011;37474;59.468;18.040;2023-04-24T13:17:22;4.60;;;2.53;;
50379;SDS011;37474;59.468;18.040;2023-04-24T13:19:51;4.83;;;3.00;;
50379;SDS011;37474;59.468;18.040;2023-04-24T13:22:21;4.97;;;2.73;;
50379;SDS011;37474;59.468;18.040;2023-04-24T13:24:49;5.77;;;2.63;;
50379;SDS011;37474;59.468;18.040;2023-04-24T13:27:17;5.83;;;2.90;;
50379;SDS011;37474;59.468;18.040;2023-04-24T13:29:46;6.80;;;3.10;;
50379;SDS011;37474;59.468;18.040;2023-04-24T13:32:13;6.60;;;3.23;;
50379;SDS011;37474;59.468;18.040;2023-04-24T13:34:42;4.53;;;3.20;;
50379;SDS011;37474;59.468;18.040;2023-04-24T13:37:11;4.03;;;3.17;;
50379;SDS011;37474;59.468;18.040;2023-04-24T13:39:39;6.53;;;2.67;;
50379;SDS011;37474;59.468;18.040;2023-04-24T13:42:08;4.33;;;2.70;;
50379;SDS011;37474;59.468;18.040;2023-04-24T13:44:37;5.30;;;2.90;;
50379;SDS011;37474;59.468;18.040;2023-04-24T13:47:05;6.10;;;2.67;;
50379;SDS011;37474;59.468;18.040;2023-04-24T13:49:33;6.07;;;2.90;;
50379;SDS011;37474;59.468;18.040;2023-04-24T13:52:01;4.40;;;2.70;;
50379;SDS011;37474;59.468;18.040;2023-04-24T13:54:31;4.27;;;2.90;;
50379;SDS011;37474;59.468;18.040;2023-04-24T13:56:59;5.00;;;2.80;;
50379;SDS011;37474;59.468;18.040;2023-04-24T13:59:29;4.03;;;2.70;;
50379;SDS011;37474;59.468;18.040;2023-04-24T14:01:57;7.00;;;3.20;;
50379;SDS011;37474;59.468;18.040;2023-04-24T14:04:26;6.10;;;3.07;;
50379;SDS011;37474;59.468;18.040;2023-04-24T14:06:54;4.10;;;2.70;;
50379;SDS011;37474;59.468;18.040;2023-04-24T14:09:22;5.63;;;2.87;;
50379;SDS011;37474;59.468;18.040;2023-04-24T14:11:52;6.00;;;2.80;;
50379;SDS011;37474;59.468;18.040;2023-04-24T14:14:20;5.78;;;2.90;;
50379;SDS011;37474;59.468;18.040;2023-04-24T14:16:48;5.10;;;2.90;;
50379;SDS011;37474;59.468;18.040;2023-04-24T14:19:17;4.43;;;3.03;;
50379;SDS011;37474;59.468;18.040;2023-04-24T14:21:47;4.67;;;2.70;;
50379;SDS011;37474;59.468;18.040;2023-04-24T14:24:15;4.63;;;2.80;;
50379;SDS011;37474;59.468;18.040;2023-04-24T14:26:44;6.93;;;2.97;;
50379;SDS011;37474;59.468;18.040;2023-04-24T14:29:13;6.43;;;3.00;;
50379;SDS011;37474;59.468;18.040;2023-04-24T14:31:41;6.83;;;3.60;;
50379;SDS011;37474;59.468;18.040;2023-04-24T14:34:13;6.70;;;3.20;;
50379;SDS011;37474;59.468;18.040;2023-04-24T14:36:41;7.77;;;2.80;;
50379;SDS011;37474;59.468;18.040;2023-04-24T14:39:09;4.67;;;3.30;;
50379;SDS011;37474;59.468;18.040;2023-04-24T14:41:38;6.13;;;3.90;;
50379;SDS011;37474;59.468;18.040;2023-04-24T14:44:06;5.73;;;3.20;;
50379;SDS011;37474;59.468;18.040;2023-04-24T14:46:35;8.00;;;3.60;;
50379;SDS011;37474;59.468;18.040;2023-04-24T14:49:04;7.53;;;3.85;;
50379;SDS011;37474;59.468;18.040;2023-04-24T14:51:36;6.37;;;3.50;;
50379;SDS011;37474;59.468;18.040;2023-04-24T14:54:04;6.87;;;3.53;;
50379;SDS011;37474;59.468;18.040;2023-04-24T14:56:32;7.70;;;3.30;;
50379;SDS011;37474;59.468;18.040;2023-04-24T14:59:00;7.77;;;3.07;;
50379;SDS011;37474;59.468;18.040;2023-04-24T15:01:29;5.10;;;3.27;;